CPX784 Details

Departure: Incheon International Airport (RKSI)
Arrival: Tan Son Nhat International Airport (VVTS)
Route: BOPTA1K BOPTA Z51 BEDES Y711 MUGUS Y742 SALMI Q11 DRAKE Q11 TACLE Q12 KABAM N892 MESOX Q15 CRA W2 PTH BAOMY1F


Current Weather Information
RKSI 251100Z 24005KT 190V260 CAVOK 22/14 Q1015 NOSIG
VVTS 251100Z 18005KT 130V210 9999 FEW017 SCT050 28/25 Q1006 NOSIG